sensor_id;sensor_type;location;lat;lon;timestamp;temperature;humidity
30467;DHT22;17258;52.560;13.046;2023-05-07T00:08:20;14.70;53.70
30467;DHT22;17258;52.560;13.046;2023-05-07T00:18:21;14.70;53.70
30467;DHT22;17258;52.560;13.046;2023-05-07T00:28:22;14.70;53.70
30467;DHT22;17258;52.560;13.046;2023-05-07T00:38:23;14.70;53.80
30467;DHT22;17258;52.560;13.046;2023-05-07T00:48:25;14.70;53.80
30467;DHT22;17258;52.560;13.046;2023-05-07T00:58:26;14.70;53.90
30467;DHT22;17258;52.560;13.046;2023-05-07T01:08:28;14.80;53.90
30467;DHT22;17258;52.560;13.046;2023-05-07T01:18:29;14.70;53.90
30467;DHT22;17258;52.560;13.046;2023-05-07T01:28:30;14.80;53.90
30467;DHT22;17258;52.560;13.046;2023-05-07T01:38:31;14.80;53.90
30467;DHT22;17258;52.560;13.046;2023-05-07T01:48:32;14.80;53.80
30467;DHT22;17258;52.560;13.046;2023-05-07T01:58:33;14.80;53.80
30467;DHT22;17258;52.560;13.046;2023-05-07T02:08:34;14.90;53.80
30467;DHT22;17258;52.560;13.046;2023-05-07T02:18:35;14.80;53.80
30467;DHT22;17258;52.560;13.046;2023-05-07T02:28:36;14.80;53.70
30467;DHT22;17258;52.560;13.046;2023-05-07T02:38:36;14.80;53.80
30467;DHT22;17258;52.560;13.046;2023-05-07T02:48:37;14.70;53.90
30467;DHT22;17258;52.560;13.046;2023-05-07T02:58:38;14.70;53.80
30467;DHT22;17258;52.560;13.046;2023-05-07T03:08:39;14.70;54.00
30467;DHT22;17258;52.560;13.046;2023-05-07T03:18:40;14.70;53.90
30467;DHT22;17258;52.560;13.046;2023-05-07T03:28:41;14.70;53.90
30467;DHT22;17258;52.560;13.046;2023-05-07T03:38:42;14.70;53.90
30467;DHT22;17258;52.560;13.046;2023-05-07T03:48:42;14.70;53.90
30467;DHT22;17258;52.560;13.046;2023-05-07T03:58:43;14.70;53.90
30467;DHT22;17258;52.560;13.046;2023-05-07T04:08:44;14.70;53.90
30467;DHT22;17258;52.560;13.046;2023-05-07T04:18:44;14.70;54.00
30467;DHT22;17258;52.560;13.046;2023-05-07T04:28:45;14.60;53.90
30467;DHT22;17258;52.560;13.046;2023-05-07T04:38:46;14.60;53.90
30467;DHT22;17258;52.560;13.046;2023-05-07T04:48:46;14.60;54.00
30467;DHT22;17258;52.560;13.046;2023-05-07T04:58:47;14.50;53.90
30467;DHT22;17258;52.560;13.046;2023-05-07T05:08:48;14.60;54.00
30467;DHT22;17258;52.560;13.046;2023-05-07T05:18:48;14.60;54.00
30467;DHT22;17258;52.560;13.046;2023-05-07T05:28:49;14.60;54.70
30467;DHT22;17258;52.560;13.046;2023-05-07T05:38:50;14.60;53.50
30467;DHT22;17258;52.560;13.046;2023-05-07T05:48:50;14.60;54.00
30467;DHT22;17258;52.560;13.046;2023-05-07T05:58:51;14.70;54.10
30467;DHT22;17258;52.560;13.046;2023-05-07T06:08:52;14.80;54.20
30467;DHT22;17258;52.560;13.046;2023-05-07T06:18:52;14.90;54.40
30467;DHT22;17258;52.560;13.046;2023-05-07T06:28:53;15.10;54.50
30467;DHT22;17258;52.560;13.046;2023-05-07T06:38:54;15.30;54.40
30467;DHT22;17258;52.560;13.046;2023-05-07T06:48:55;15.50;54.30
30467;DHT22;17258;52.560;13.046;2023-05-07T06:58:57;15.70;54.40
30467;DHT22;17258;52.560;13.046;2023-05-07T07:09:00;15.90;54.40
30467;DHT22;17258;52.560;13.046;2023-05-07T07:19:01;16.20;54.10
30467;DHT22;17258;52.560;13.046;2023-05-07T07:29:02;16.40;53.70
30467;DHT22;17258;52.560;13.046;2023-05-07T07:39:02;16.50;53.50
30467;DHT22;17258;52.560;13.046;2023-05-07T07:49:03;16.50;53.30
30467;DHT22;17258;52.560;13.046;2023-05-07T07:59:04;16.70;53.50
30467;DHT22;17258;52.560;13.046;2023-05-07T08:09:05;16.80;53.50
30467;DHT22;17258;52.560;13.046;2023-05-07T08:19:05;17.00;53.60
30467;DHT22;17258;52.560;13.046;2023-05-07T08:29:06;17.30;53.80
30467;DHT22;17258;52.560;13.046;2023-05-07T08:39:07;17.70;53.80
30467;DHT22;17258;52.560;13.046;2023-05-07T08:49:08;18.20;53.50
30467;DHT22;17258;52.560;13.046;2023-05-07T08:59:09;18.50;52.90
30467;DHT22;17258;52.560;13.046;2023-05-07T09:09:14;18.80;52.70
30467;DHT22;17258;52.560;13.046;2023-05-07T09:19:15;19.10;52.10
30467;DHT22;17258;52.560;13.046;2023-05-07T09:29:15;19.30;52.00
30467;DHT22;17258;52.560;13.046;2023-05-07T09:39:17;19.60;51.90
30467;DHT22;17258;52.560;13.046;2023-05-07T09:49:22;20.00;51.50
30467;DHT22;17258;52.560;13.046;2023-05-07T09:59:24;20.20;51.40
30467;DHT22;17258;52.560;13.046;2023-05-07T10:09:26;20.40;50.80
30467;DHT22;17258;52.560;13.046;2023-05-07T10:19:28;20.50;50.80
30467;DHT22;17258;52.560;13.046;2023-05-07T10:29:35;20.70;50.70
30467;DHT22;17258;52.560;13.046;2023-05-07T10:39:40;20.90;50.10
30467;DHT22;17258;52.560;13.046;2023-05-07T10:59:42;21.20;50.10
30467;DHT22;17258;52.560;13.046;2023-05-07T11:09:56;21.40;50.10
30467;DHT22;17258;52.560;13.046;2023-05-07T11:20:05;21.70;48.30
30467;DHT22;17258;52.560;13.046;2023-05-07T11:30:06;21.80;48.80
30467;DHT22;17258;52.560;13.046;2023-05-07T11:40:08;21.80;48.60
30467;DHT22;17258;52.560;13.046;2023-05-07T11:50:10;21.90;48.50
30467;DHT22;17258;52.560;13.046;2023-05-07T12:00:12;22.10;48.50
30467;DHT22;17258;52.560;13.046;2023-05-07T12:10:13;22.20;48.30
30467;DHT22;17258;52.560;13.046;2023-05-07T12:20:13;22.50;49.20
30467;DHT22;17258;52.560;13.046;2023-05-07T12:30:14;22.90;47.80
30467;DHT22;17258;52.560;13.046;2023-05-07T12:40:15;23.20;47.70
30467;DHT22;17258;52.560;13.046;2023-05-07T12:50:16;23.50;47.40
30467;DHT22;17258;52.560;13.046;2023-05-07T13:00:17;23.70;46.30
30467;DHT22;17258;52.560;13.046;2023-05-07T13:10:18;23.70;46.50
30467;DHT22;17258;52.560;13.046;2023-05-07T13:20:19;23.80;46.50
30467;DHT22;17258;52.560;13.046;2023-05-07T13:30:20;23.90;46.20
30467;DHT22;17258;52.560;13.046;2023-05-07T13:40:21;24.00;46.20
30467;DHT22;17258;52.560;13.046;2023-05-07T13:50:22;24.30;46.00
30467;DHT22;17258;52.560;13.046;2023-05-07T14:00:24;24.60;45.90
30467;DHT22;17258;52.560;13.046;2023-05-07T14:10:26;25.00;45.40
30467;DHT22;17258;52.560;13.046;2023-05-07T14:20:28;25.10;44.90
30467;DHT22;17258;52.560;13.046;2023-05-07T14:30:30;25.20;44.40
30467;DHT22;17258;52.560;13.046;2023-05-07T14:40:31;25.20;45.20
30467;DHT22;17258;52.560;13.046;2023-05-07T14:50:32;25.20;43.90
30467;DHT22;17258;52.560;13.046;2023-05-07T15:00:33;25.10;43.50
30467;DHT22;17258;52.560;13.046;2023-05-07T15:10:38;24.90;43.70
30467;DHT22;17258;52.560;13.046;2023-05-07T15:20:42;25.00;43.80
30467;DHT22;17258;52.560;13.046;2023-05-07T15:30:42;25.20;44.20
30467;DHT22;17258;52.560;13.046;2023-05-07T15:40:43;25.60;43.80
30467;DHT22;17258;52.560;13.046;2023-05-07T15:50:45;25.90;43.30
30467;DHT22;17258;52.560;13.046;2023-05-07T16:00:46;26.00;42.80
30467;DHT22;17258;52.560;13.046;2023-05-07T16:10:46;26.00;42.70
30467;DHT22;17258;52.560;13.046;2023-05-07T16:20:47;26.20;42.30
30467;DHT22;17258;52.560;13.046;2023-05-07T16:30:47;26.20;42.00
30467;DHT22;17258;52.560;13.046;2023-05-07T16:40:48;26.00;41.40
30467;DHT22;17258;52.560;13.046;2023-05-07T16:50:49;25.80;41.00
30467;DHT22;17258;52.560;13.046;2023-05-07T17:00:50;25.30;40.40
30467;DHT22;17258;52.560;13.046;2023-05-07T17:10:51;24.60;40.60
30467;DHT22;17258;52.560;13.046;2023-05-07T17:20:51;24.00;40.80
30467;DHT22;17258;52.560;13.046;2023-05-07T17:30:52;23.50;41.00
30467;DHT22;17258;52.560;13.046;2023-05-07T17:40:53;23.20;41.60
30467;DHT22;17258;52.560;13.046;2023-05-07T17:51:00;22.90;41.70
30467;DHT22;17258;52.560;13.046;2023-05-07T18:01:01;22.70;41.30
30467;DHT22;17258;52.560;13.046;2023-05-07T18:11:02;22.40;41.60
30467;DHT22;17258;52.560;13.046;2023-05-07T18:21:05;22.10;41.70
30467;DHT22;17258;52.560;13.046;2023-05-07T18:31:06;21.70;41.70
30467;DHT22;17258;52.560;13.046;2023-05-07T18:41:06;21.30;41.80
30467;DHT22;17258;52.560;13.046;2023-05-07T18:51:07;20.90;41.90
30467;DHT22;17258;52.560;13.046;2023-05-07T19:01:11;20.50;41.80
30467;DHT22;17258;52.560;13.046;2023-05-07T19:11:12;20.00;42.00
30467;DHT22;17258;52.560;13.046;2023-05-07T19:21:13;19.70;42.40
30467;DHT22;17258;52.560;13.046;2023-05-07T19:31:18;19.30;42.50
30467;DHT22;17258;52.560;13.046;2023-05-07T19:41:20;19.00;42.80
30467;DHT22;17258;52.560;13.046;2023-05-07T19:51:21;18.80;43.00
30467;DHT22;17258;52.560;13.046;2023-05-07T20:01:22;18.50;43.00
30467;DHT22;17258;52.560;13.046;2023-05-07T20:11:23;18.30;43.20
30467;DHT22;17258;52.560;13.046;2023-05-07T20:21:23;18.10;43.50
30467;DHT22;17258;52.560;13.046;2023-05-07T20:31:24;18.00;43.70
30467;DHT22;17258;52.560;13.046;2023-05-07T20:41:25;17.90;43.90
30467;DHT22;17258;52.560;13.046;2023-05-07T20:51:26;17.80;44.00
30467;DHT22;17258;52.560;13.046;2023-05-07T21:01:26;17.60;44.10
30467;DHT22;17258;52.560;13.046;2023-05-07T21:11:28;17.40;44.20
30467;DHT22;17258;52.560;13.046;2023-05-07T21:21:29;17.20;44.30
30467;DHT22;17258;52.560;13.046;2023-05-07T21:31:30;17.00;44.30
30467;DHT22;17258;52.560;13.046;2023-05-07T21:41:31;16.80;44.40
30467;DHT22;17258;52.560;13.046;2023-05-07T21:51:32;16.60;44.60
30467;DHT22;17258;52.560;13.046;2023-05-07T22:01:33;16.40;44.80
30467;DHT22;17258;52.560;13.046;2023-05-07T22:11:34;16.20;44.90
30467;DHT22;17258;52.560;13.046;2023-05-07T22:21:35;16.00;45.10
30467;DHT22;17258;52.560;13.046;2023-05-07T22:31:36;15.80;45.20
30467;DHT22;17258;52.560;13.046;2023-05-07T22:41:36;15.70;45.40
30467;DHT22;17258;52.560;13.046;2023-05-07T22:51:37;15.50;45.50
30467;DHT22;17258;52.560;13.046;2023-05-07T23:01:37;15.40;45.60
30467;DHT22;17258;52.560;13.046;2023-05-07T23:11:38;15.20;45.70
30467;DHT22;17258;52.560;13.046;2023-05-07T23:21:39;15.00;45.90
30467;DHT22;17258;52.560;13.046;2023-05-07T23:31:39;14.90;46.00
30467;DHT22;17258;52.560;13.046;2023-05-07T23:41:40;14.80;46.10
30467;DHT22;17258;52.560;13.046;2023-05-07T23:51:41;14.70;46.20
